sensor_id;sensor_type;location;lat;lon;timestamp;P1;durP1;ratioP1;P2;durP2;ratioP2
3259;SDS011;68938;48.150;14.004;2023-04-24T00:00:51;2.47;;;2.27;;
3259;SDS011;68938;48.150;14.004;2023-04-24T00:03:18;3.60;;;2.73;;
3259;SDS011;68938;48.150;14.004;2023-04-24T00:05:45;2.80;;;2.67;;
3259;SDS011;68938;48.150;14.004;2023-04-24T00:08:12;2.67;;;2.50;;
3259;SDS011;68938;48.150;14.004;2023-04-24T00:10:39;2.27;;;2.07;;
3259;SDS011;68938;48.150;14.004;2023-04-24T00:13:06;2.53;;;2.43;;
3259;SDS011;68938;48.150;14.004;2023-04-24T00:15:33;2.80;;;2.50;;
3259;SDS011;68938;48.150;14.004;2023-04-24T00:18:00;2.30;;;2.20;;
3259;SDS011;68938;48.150;14.004;2023-04-24T00:20:27;2.93;;;2.63;;
3259;SDS011;68938;48.150;14.004;2023-04-24T00:22:55;2.10;;;2.00;;
3259;SDS011;68938;48.150;14.004;2023-04-24T00:25:22;2.20;;;2.10;;
3259;SDS011;68938;48.150;14.004;2023-04-24T00:27:49;1.60;;;1.50;;
3259;SDS011;68938;48.150;14.004;2023-04-24T00:30:16;2.33;;;2.23;;
3259;SDS011;68938;48.150;14.004;2023-04-24T00:32:43;2.50;;;2.40;;
3259;SDS011;68938;48.150;14.004;2023-04-24T00:35:09;5.50;;;2.30;;
3259;SDS011;68938;48.150;14.004;2023-04-24T00:37:36;2.60;;;2.50;;
3259;SDS011;68938;48.150;14.004;2023-04-24T00:40:03;2.30;;;2.20;;
3259;SDS011;68938;48.150;14.004;2023-04-24T00:42:31;2.63;;;2.50;;
3259;SDS011;68938;48.150;14.004;2023-04-24T00:44:59;3.37;;;3.10;;
3259;SDS011;68938;48.150;14.004;2023-04-24T00:47:28;2.90;;;2.70;;
3259;SDS011;68938;48.150;14.004;2023-04-24T00:49:56;3.47;;;3.17;;
3259;SDS011;68938;48.150;14.004;2023-04-24T00:52:23;3.27;;;2.97;;
3259;SDS011;68938;48.150;14.004;2023-04-24T00:54:50;3.30;;;3.10;;
3259;SDS011;68938;48.150;14.004;2023-04-24T00:57:17;3.80;;;3.60;;
3259;SDS011;68938;48.150;14.004;2023-04-24T00:59:44;3.10;;;2.90;;
3259;SDS011;68938;48.150;14.004;2023-04-24T01:02:12;3.47;;;2.40;;
3259;SDS011;68938;48.150;14.004;2023-04-24T01:04:40;3.17;;;2.97;;
3259;SDS011;68938;48.150;14.004;2023-04-24T01:07:08;2.90;;;2.80;;
3259;SDS011;68938;48.150;14.004;2023-04-24T01:09:38;2.70;;;2.50;;
3259;SDS011;68938;48.150;14.004;2023-04-24T01:12:07;2.43;;;2.33;;
3259;SDS011;68938;48.150;14.004;2023-04-24T01:14:35;2.30;;;2.20;;
3259;SDS011;68938;48.150;14.004;2023-04-24T01:17:02;3.00;;;2.70;;
3259;SDS011;68938;48.150;14.004;2023-04-24T01:19:29;2.47;;;2.37;;
3259;SDS011;68938;48.150;14.004;2023-04-24T01:21:58;2.80;;;2.60;;
3259;SDS011;68938;48.150;14.004;2023-04-24T01:24:28;2.60;;;2.50;;
3259;SDS011;68938;48.150;14.004;2023-04-24T01:26:56;3.30;;;3.10;;
3259;SDS011;68938;48.150;14.004;2023-04-24T01:29:23;1.83;;;1.73;;
3259;SDS011;68938;48.150;14.004;2023-04-24T01:31:50;2.73;;;2.53;;
3259;SDS011;68938;48.150;14.004;2023-04-24T01:34:17;5.47;;;2.70;;
3259;SDS011;68938;48.150;14.004;2023-04-24T01:36:45;2.00;;;1.90;;
3259;SDS011;68938;48.150;14.004;2023-04-24T01:39:12;2.70;;;2.50;;
3259;SDS011;68938;48.150;14.004;2023-04-24T01:41:39;3.00;;;2.80;;
3259;SDS011;68938;48.150;14.004;2023-04-24T01:44:07;3.13;;;2.87;;
3259;SDS011;68938;48.150;14.004;2023-04-24T01:46:34;2.63;;;2.43;;
3259;SDS011;68938;48.150;14.004;2023-04-24T01:49:01;2.37;;;2.27;;
3259;SDS011;68938;48.150;14.004;2023-04-24T01:51:28;2.20;;;2.10;;
3259;SDS011;68938;48.150;14.004;2023-04-24T01:53:55;2.67;;;2.47;;
3259;SDS011;68938;48.150;14.004;2023-04-24T01:56:22;4.00;;;2.60;;
3259;SDS011;68938;48.150;14.004;2023-04-24T01:58:50;2.70;;;2.60;;
3259;SDS011;68938;48.150;14.004;2023-04-24T02:01:20;3.80;;;3.10;;
3259;SDS011;68938;48.150;14.004;2023-04-24T02:03:47;3.20;;;3.00;;
3259;SDS011;68938;48.150;14.004;2023-04-24T02:06:14;3.33;;;3.03;;
3259;SDS011;68938;48.150;14.004;2023-04-24T02:08:41;2.90;;;2.70;;
3259;SDS011;68938;48.150;14.004;2023-04-24T02:11:09;2.03;;;1.93;;
3259;SDS011;68938;48.150;14.004;2023-04-24T02:13:36;2.70;;;2.60;;
3259;SDS011;68938;48.150;14.004;2023-04-24T02:16:03;3.20;;;3.00;;
3259;SDS011;68938;48.150;14.004;2023-04-24T02:18:30;2.60;;;2.50;;
3259;SDS011;68938;48.150;14.004;2023-04-24T02:20:57;2.80;;;2.60;;
3259;SDS011;68938;48.150;14.004;2023-04-24T02:23:24;2.90;;;2.70;;
3259;SDS011;68938;48.150;14.004;2023-04-24T02:25:51;3.00;;;2.80;;
3259;SDS011;68938;48.150;14.004;2023-04-24T02:28:18;3.13;;;2.93;;
3259;SDS011;68938;48.150;14.004;2023-04-24T02:30:45;3.23;;;2.97;;
3259;SDS011;68938;48.150;14.004;2023-04-24T02:33:12;2.53;;;2.43;;
3259;SDS011;68938;48.150;14.004;2023-04-24T02:35:39;3.17;;;2.97;;
3259;SDS011;68938;48.150;14.004;2023-04-24T02:38:05;2.40;;;2.30;;
3259;SDS011;68938;48.150;14.004;2023-04-24T02:40:32;2.90;;;2.70;;
3259;SDS011;68938;48.150;14.004;2023-04-24T02:42:59;4.10;;;3.07;;
3259;SDS011;68938;48.150;14.004;2023-04-24T02:45:26;3.27;;;3.07;;
3259;SDS011;68938;48.150;14.004;2023-04-24T02:47:53;3.70;;;3.47;;
3259;SDS011;68938;48.150;14.004;2023-04-24T02:50:20;3.50;;;3.20;;
3259;SDS011;68938;48.150;14.004;2023-04-24T02:52:47;2.50;;;2.40;;
3259;SDS011;68938;48.150;14.004;2023-04-24T02:55:14;3.03;;;2.83;;
3259;SDS011;68938;48.150;14.004;2023-04-24T02:57:40;2.87;;;2.67;;
3259;SDS011;68938;48.150;14.004;2023-04-24T03:00:08;5.67;;;3.17;;
3259;SDS011;68938;48.150;14.004;2023-04-24T03:02:36;3.27;;;3.07;;
3259;SDS011;68938;48.150;14.004;2023-04-24T03:05:03;3.87;;;3.57;;
3259;SDS011;68938;48.150;14.004;2023-04-24T03:07:31;2.77;;;2.60;;
3259;SDS011;68938;48.150;14.004;2023-04-24T03:09:58;3.23;;;3.03;;
3259;SDS011;68938;48.150;14.004;2023-04-24T03:12:25;2.63;;;2.53;;
3259;SDS011;68938;48.150;14.004;2023-04-24T03:14:52;3.03;;;2.93;;
3259;SDS011;68938;48.150;14.004;2023-04-24T03:17:18;3.00;;;2.90;;
3259;SDS011;68938;48.150;14.004;2023-04-24T03:19:45;3.27;;;3.07;;
3259;SDS011;68938;48.150;14.004;2023-04-24T03:22:12;3.37;;;3.17;;
3259;SDS011;68938;48.150;14.004;2023-04-24T03:24:39;2.63;;;2.53;;
3259;SDS011;68938;48.150;14.004;2023-04-24T03:27:06;2.70;;;2.60;;
3259;SDS011;68938;48.150;14.004;2023-04-24T03:29:33;3.20;;;3.00;;
3259;SDS011;68938;48.150;14.004;2023-04-24T03:32:00;2.67;;;2.57;;
3259;SDS011;68938;48.150;14.004;2023-04-24T03:34:27;3.67;;;3.30;;
3259;SDS011;68938;48.150;14.004;2023-04-24T03:36:54;3.00;;;2.90;;
3259;SDS011;68938;48.150;14.004;2023-04-24T03:39:21;3.20;;;3.10;;
3259;SDS011;68938;48.150;14.004;2023-04-24T03:41:47;3.70;;;3.50;;
3259;SDS011;68938;48.150;14.004;2023-04-24T03:44:14;3.53;;;3.20;;
3259;SDS011;68938;48.150;14.004;2023-04-24T03:46:41;3.73;;;3.43;;
3259;SDS011;68938;48.150;14.004;2023-04-24T03:49:08;3.10;;;3.00;;
3259;SDS011;68938;48.150;14.004;2023-04-24T03:51:35;2.93;;;2.57;;
3259;SDS011;68938;48.150;14.004;2023-04-24T03:54:02;2.60;;;2.40;;
3259;SDS011;68938;48.150;14.004;2023-04-24T03:56:29;2.77;;;2.57;;
3259;SDS011;68938;48.150;14.004;2023-04-24T03:58:56;2.23;;;2.03;;
3259;SDS011;68938;48.150;14.004;2023-04-24T04:01:23;2.73;;;2.53;;
3259;SDS011;68938;48.150;14.004;2023-04-24T04:03:49;2.80;;;2.60;;
3259;SDS011;68938;48.150;14.004;2023-04-24T04:06:17;2.30;;;2.20;;
3259;SDS011;68938;48.150;14.004;2023-04-24T04:08:44;2.60;;;2.50;;
3259;SDS011;68938;48.150;14.004;2023-04-24T04:11:11;3.27;;;2.80;;
3259;SDS011;68938;48.150;14.004;2023-04-24T04:13:37;2.20;;;2.10;;
3259;SDS011;68938;48.150;14.004;2023-04-24T04:16:05;2.63;;;2.43;;
3259;SDS011;68938;48.150;14.004;2023-04-24T04:18:32;2.00;;;1.90;;
3259;SDS011;68938;48.150;14.004;2023-04-24T04:20:58;2.40;;;2.30;;
3259;SDS011;68938;48.150;14.004;2023-04-24T04:23:25;2.50;;;2.40;;
3259;SDS011;68938;48.150;14.004;2023-04-24T04:25:52;3.17;;;2.87;;
3259;SDS011;68938;48.150;14.004;2023-04-24T04:28:19;2.90;;;2.80;;
3259;SDS011;68938;48.150;14.004;2023-04-24T04:30:46;2.00;;;1.90;;
3259;SDS011;68938;48.150;14.004;2023-04-24T04:33:13;2.53;;;1.83;;
3259;SDS011;68938;48.150;14.004;2023-04-24T04:35:40;2.63;;;2.53;;
3259;SDS011;68938;48.150;14.004;2023-04-24T04:38:07;1.90;;;1.80;;
3259;SDS011;68938;48.150;14.004;2023-04-24T04:40:34;4.30;;;2.23;;
3259;SDS011;68938;48.150;14.004;2023-04-24T04:43:01;1.90;;;1.80;;
3259;SDS011;68938;48.150;14.004;2023-04-24T04:45:28;3.40;;;2.20;;
3259;SDS011;68938;48.150;14.004;2023-04-24T04:47:55;2.27;;;2.17;;
3259;SDS011;68938;48.150;14.004;2023-04-24T04:50:22;2.20;;;1.83;;
3259;SDS011;68938;48.150;14.004;2023-04-24T04:52:49;2.23;;;2.13;;
3259;SDS011;68938;48.150;14.004;2023-04-24T04:55:16;1.53;;;1.53;;
3259;SDS011;68938;48.150;14.004;2023-04-24T04:57:43;2.80;;;1.80;;
3259;SDS011;68938;48.150;14.004;2023-04-24T05:00:10;1.90;;;1.80;;
3259;SDS011;68938;48.150;14.004;2023-04-24T05:02:38;3.07;;;2.87;;
3259;SDS011;68938;48.150;14.004;2023-04-24T05:05:06;2.53;;;2.33;;
3259;SDS011;68938;48.150;14.004;2023-04-24T05:07:34;2.77;;;2.60;;
3259;SDS011;68938;48.150;14.004;2023-04-24T05:10:01;2.00;;;1.90;;
3259;SDS011;68938;48.150;14.004;2023-04-24T05:12:29;2.00;;;1.90;;
3259;SDS011;68938;48.150;14.004;2023-04-24T05:14:56;2.10;;;2.00;;
3259;SDS011;68938;48.150;14.004;2023-04-24T05:17:22;2.33;;;2.23;;
3259;SDS011;68938;48.150;14.004;2023-04-24T05:19:49;2.10;;;2.00;;
3259;SDS011;68938;48.150;14.004;2023-04-24T05:22:16;1.93;;;1.70;;
3259;SDS011;68938;48.150;14.004;2023-04-24T05:24:43;2.00;;;1.90;;
3259;SDS011;68938;48.150;14.004;2023-04-24T05:27:10;1.97;;;1.87;;
3259;SDS011;68938;48.150;14.004;2023-04-24T05:29:37;2.07;;;1.97;;
3259;SDS011;68938;48.150;14.004;2023-04-24T05:32:04;2.10;;;2.00;;
3259;SDS011;68938;48.150;14.004;2023-04-24T05:34:30;2.10;;;2.00;;
3259;SDS011;68938;48.150;14.004;2023-04-24T05:36:57;1.60;;;1.50;;
3259;SDS011;68938;48.150;14.004;2023-04-24T05:39:24;1.30;;;1.30;;
3259;SDS011;68938;48.150;14.004;2023-04-24T05:41:51;1.50;;;1.40;;
3259;SDS011;68938;48.150;14.004;2023-04-24T05:44:18;1.23;;;1.23;;
3259;SDS011;68938;48.150;14.004;2023-04-24T05:46:45;1.50;;;1.30;;
3259;SDS011;68938;48.150;14.004;2023-04-24T05:49:12;1.40;;;1.40;;
3259;SDS011;68938;48.150;14.004;2023-04-24T05:51:39;1.60;;;1.60;;
3259;SDS011;68938;48.150;14.004;2023-04-24T05:54:05;2.40;;;1.90;;
3259;SDS011;68938;48.150;14.004;2023-04-24T05:56:32;1.90;;;1.80;;
3259;SDS011;68938;48.150;14.004;2023-04-24T05:58:59;2.70;;;1.83;;
3259;SDS011;68938;48.150;14.004;2023-04-24T06:01:26;2.40;;;2.10;;
3259;SDS011;68938;48.150;14.004;2023-04-24T06:03:53;1.73;;;1.53;;
3259;SDS011;68938;48.150;14.004;2023-04-24T06:06:20;3.30;;;2.27;;
3259;SDS011;68938;48.150;14.004;2023-04-24T06:08:47;1.87;;;1.77;;
3259;SDS011;68938;48.150;14.004;2023-04-24T06:11:14;1.97;;;1.80;;
3259;SDS011;68938;48.150;14.004;2023-04-24T06:13:41;2.33;;;2.13;;
3259;SDS011;68938;48.150;14.004;2023-04-24T06:16:08;2.30;;;2.20;;
3259;SDS011;68938;48.150;14.004;2023-04-24T06:18:36;2.33;;;2.23;;
3259;SDS011;68938;48.150;14.004;2023-04-24T06:21:03;2.50;;;2.37;;
3259;SDS011;68938;48.150;14.004;2023-04-24T06:23:30;2.40;;;2.30;;
3259;SDS011;68938;48.150;14.004;2023-04-24T06:25:57;2.00;;;1.90;;
3259;SDS011;68938;48.150;14.004;2023-04-24T06:28:26;2.60;;;2.40;;
3259;SDS011;68938;48.150;14.004;2023-04-24T06:30:53;2.57;;;2.37;;
3259;SDS011;68938;48.150;14.004;2023-04-24T06:33:19;2.00;;;1.90;;
3259;SDS011;68938;48.150;14.004;2023-04-24T06:35:49;2.43;;;2.23;;
3259;SDS011;68938;48.150;14.004;2023-04-24T06:38:16;2.73;;;2.53;;
3259;SDS011;68938;48.150;14.004;2023-04-24T06:40:43;2.40;;;2.30;;
3259;SDS011;68938;48.150;14.004;2023-04-24T06:43:09;2.87;;;2.67;;
3259;SDS011;68938;48.150;14.004;2023-04-24T06:45:36;2.10;;;2.00;;
3259;SDS011;68938;48.150;14.004;2023-04-24T06:48:05;2.60;;;2.50;;
3259;SDS011;68938;48.150;14.004;2023-04-24T06:50:32;3.10;;;2.90;;
3259;SDS011;68938;48.150;14.004;2023-04-24T06:52:59;2.80;;;2.53;;
3259;SDS011;68938;48.150;14.004;2023-04-24T06:55:25;3.10;;;2.90;;
3259;SDS011;68938;48.150;14.004;2023-04-24T06:57:52;3.07;;;2.87;;
3259;SDS011;68938;48.150;14.004;2023-04-24T07:00:19;3.70;;;3.37;;
3259;SDS011;68938;48.150;14.004;2023-04-24T07:02:46;2.53;;;2.37;;
3259;SDS011;68938;48.150;14.004;2023-04-24T07:05:14;2.30;;;2.20;;
3259;SDS011;68938;48.150;14.004;2023-04-24T07:07:41;2.20;;;2.10;;
3259;SDS011;68938;48.150;14.004;2023-04-24T07:10:08;2.60;;;2.50;;
3259;SDS011;68938;48.150;14.004;2023-04-24T07:12:35;2.53;;;2.40;;
3259;SDS011;68938;48.150;14.004;2023-04-24T07:15:02;2.03;;;1.93;;
3259;SDS011;68938;48.150;14.004;2023-04-24T07:17:29;2.67;;;2.47;;
3259;SDS011;68938;48.150;14.004;2023-04-24T07:19:56;3.07;;;2.87;;
3259;SDS011;68938;48.150;14.004;2023-04-24T07:22:23;2.50;;;2.30;;
3259;SDS011;68938;48.150;14.004;2023-04-24T07:24:50;2.50;;;2.40;;
3259;SDS011;68938;48.150;14.004;2023-04-24T07:27:17;3.03;;;2.83;;
3259;SDS011;68938;48.150;14.004;2023-04-24T07:29:44;2.70;;;2.60;;
3259;SDS011;68938;48.150;14.004;2023-04-24T07:32:11;2.47;;;2.33;;
3259;SDS011;68938;48.150;14.004;2023-04-24T07:34:38;2.80;;;1.83;;
3259;SDS011;68938;48.150;14.004;2023-04-24T07:37:05;2.27;;;2.07;;
3259;SDS011;68938;48.150;14.004;2023-04-24T07:39:32;2.03;;;1.80;;
3259;SDS011;68938;48.150;14.004;2023-04-24T07:41:59;2.33;;;2.13;;
3259;SDS011;68938;48.150;14.004;2023-04-24T07:44:26;1.80;;;1.70;;
3259;SDS011;68938;48.150;14.004;2023-04-24T07:46:53;2.20;;;2.10;;
3259;SDS011;68938;48.150;14.004;2023-04-24T07:49:20;2.03;;;1.93;;
3259;SDS011;68938;48.150;14.004;2023-04-24T07:51:47;2.00;;;1.90;;
3259;SDS011;68938;48.150;14.004;2023-04-24T07:54:15;2.13;;;1.97;;
3259;SDS011;68938;48.150;14.004;2023-04-24T07:56:42;2.20;;;2.10;;
3259;SDS011;68938;48.150;14.004;2023-04-24T07:59:10;1.70;;;1.60;;
3259;SDS011;68938;48.150;14.004;2023-04-24T08:01:37;1.67;;;1.60;;
3259;SDS011;68938;48.150;14.004;2023-04-24T08:04:04;2.50;;;2.27;;
3259;SDS011;68938;48.150;14.004;2023-04-24T08:06:32;1.97;;;1.87;;
3259;SDS011;68938;48.150;14.004;2023-04-24T08:08:59;1.90;;;1.80;;
3259;SDS011;68938;48.150;14.004;2023-04-24T08:11:27;2.33;;;2.23;;
3259;SDS011;68938;48.150;14.004;2023-04-24T08:13:54;3.97;;;2.30;;
3259;SDS011;68938;48.150;14.004;2023-04-24T08:16:21;1.90;;;1.80;;
3259;SDS011;68938;48.150;14.004;2023-04-24T08:18:48;2.40;;;1.97;;
3259;SDS011;68938;48.150;14.004;2023-04-24T08:21:16;1.40;;;1.40;;
3259;SDS011;68938;48.150;14.004;2023-04-24T08:23:43;2.23;;;1.97;;
3259;SDS011;68938;48.150;14.004;2023-04-24T08:26:09;1.63;;;1.53;;
3259;SDS011;68938;48.150;14.004;2023-04-24T08:28:37;2.50;;;2.17;;
3259;SDS011;68938;48.150;14.004;2023-04-24T08:31:04;1.80;;;1.70;;
3259;SDS011;68938;48.150;14.004;2023-04-24T08:33:32;2.20;;;2.10;;
3259;SDS011;68938;48.150;14.004;2023-04-24T08:35:58;2.03;;;1.93;;
3259;SDS011;68938;48.150;14.004;2023-04-24T08:38:28;2.03;;;1.93;;
3259;SDS011;68938;48.150;14.004;2023-04-24T08:40:56;1.90;;;1.80;;
3259;SDS011;68938;48.150;14.004;2023-04-24T08:43:25;2.30;;;2.10;;
3259;SDS011;68938;48.150;14.004;2023-04-24T08:45:55;1.63;;;1.53;;
3259;SDS011;68938;48.150;14.004;2023-04-24T08:48:23;1.80;;;1.70;;
3259;SDS011;68938;48.150;14.004;2023-04-24T08:50:57;2.77;;;1.80;;
3259;SDS011;68938;48.150;14.004;2023-04-24T08:53:25;1.70;;;1.70;;
3259;SDS011;68938;48.150;14.004;2023-04-24T08:55:54;2.23;;;1.80;;
3259;SDS011;68938;48.150;14.004;2023-04-24T08:58:22;6.30;;;2.33;;
3259;SDS011;68938;48.150;14.004;2023-04-24T09:00:53;1.93;;;1.83;;
3259;SDS011;68938;48.150;14.004;2023-04-24T09:03:22;1.40;;;1.30;;
3259;SDS011;68938;48.150;14.004;2023-04-24T09:05:50;1.63;;;1.57;;
3259;SDS011;68938;48.150;14.004;2023-04-24T09:08:20;2.17;;;1.53;;
3259;SDS011;68938;48.150;14.004;2023-04-24T09:10:51;1.80;;;1.70;;
3259;SDS011;68938;48.150;14.004;2023-04-24T09:13:21;5.90;;;1.90;;
3259;SDS011;68938;48.150;14.004;2023-04-24T09:15:48;2.27;;;1.50;;
3259;SDS011;68938;48.150;14.004;2023-04-24T09:18:15;1.20;;;1.20;;
3259;SDS011;68938;48.150;14.004;2023-04-24T09:21:01;1.37;;;1.37;;
3259;SDS011;68938;48.150;14.004;2023-04-24T09:23:30;1.73;;;1.40;;
3259;SDS011;68938;48.150;14.004;2023-04-24T09:25:59;1.93;;;1.40;;
3259;SDS011;68938;48.150;14.004;2023-04-24T09:28:32;2.40;;;2.17;;
3259;SDS011;68938;48.150;14.004;2023-04-24T09:31:09;1.90;;;1.73;;
3259;SDS011;68938;48.150;14.004;2023-04-24T09:33:40;1.70;;;1.60;;
3259;SDS011;68938;48.150;14.004;2023-04-24T09:36:24;1.33;;;1.23;;
3259;SDS011;68938;48.150;14.004;2023-04-24T09:38:58;1.13;;;1.13;;
3259;SDS011;68938;48.150;14.004;2023-04-24T09:41:29;1.30;;;1.30;;
3259;SDS011;68938;48.150;14.004;2023-04-24T09:44:12;1.60;;;1.50;;
3259;SDS011;68938;48.150;14.004;2023-04-24T09:46:45;1.50;;;1.50;;
3259;SDS011;68938;48.150;14.004;2023-04-24T09:49:16;1.27;;;1.27;;
3259;SDS011;68938;48.150;14.004;2023-04-24T09:51:51;1.60;;;1.60;;
3259;SDS011;68938;48.150;14.004;2023-04-24T09:54:28;1.40;;;1.30;;
3259;SDS011;68938;48.150;14.004;2023-04-24T09:56:55;1.80;;;1.40;;
3259;SDS011;68938;48.150;14.004;2023-04-24T09:59:22;2.10;;;1.63;;
3259;SDS011;68938;48.150;14.004;2023-04-24T10:01:49;1.37;;;1.20;;
3259;SDS011;68938;48.150;14.004;2023-04-24T10:04:17;1.27;;;1.27;;
3259;SDS011;68938;48.150;14.004;2023-04-24T10:06:48;1.17;;;1.17;;
3259;SDS011;68938;48.150;14.004;2023-04-24T10:09:18;1.20;;;1.10;;
3259;SDS011;68938;48.150;14.004;2023-04-24T10:11:48;1.63;;;1.20;;
3259;SDS011;68938;48.150;14.004;2023-04-24T10:14:18;1.13;;;1.00;;
3259;SDS011;68938;48.150;14.004;2023-04-24T10:16:48;1.10;;;1.10;;
3259;SDS011;68938;48.150;14.004;2023-04-24T10:19:19;0.90;;;0.90;;
3259;SDS011;68938;48.150;14.004;2023-04-24T10:21:46;1.40;;;1.30;;
3259;SDS011;68938;48.150;14.004;2023-04-24T10:24:14;2.40;;;1.57;;
3259;SDS011;68938;48.150;14.004;2023-04-24T10:26:43;1.30;;;1.30;;
3259;SDS011;68938;48.150;14.004;2023-04-24T10:29:12;0.90;;;0.90;;
3259;SDS011;68938;48.150;14.004;2023-04-24T10:31:40;1.30;;;0.97;;
3259;SDS011;68938;48.150;14.004;2023-04-24T10:34:08;1.00;;;1.00;;
3259;SDS011;68938;48.150;14.004;2023-04-24T10:36:36;0.90;;;0.90;;
3259;SDS011;68938;48.150;14.004;2023-04-24T10:39:12;1.20;;;1.10;;
3259;SDS011;68938;48.150;14.004;2023-04-24T10:41:41;0.90;;;0.90;;
3259;SDS011;68938;48.150;14.004;2023-04-24T10:44:13;1.20;;;0.90;;
3259;SDS011;68938;48.150;14.004;2023-04-24T10:46:45;1.07;;;1.07;;
3259;SDS011;68938;48.150;14.004;2023-04-24T10:49:13;1.20;;;1.20;;
3259;SDS011;68938;48.150;14.004;2023-04-24T10:54:52;0.80;;;0.80;;
3259;SDS011;68938;48.150;14.004;2023-04-24T10:59:46;1.87;;;1.53;;
3259;SDS011;68938;48.150;14.004;2023-04-24T11:02:39;0.80;;;0.80;;
3259;SDS011;68938;48.150;14.004;2023-04-24T11:05:07;1.10;;;1.10;;
3259;SDS011;68938;48.150;14.004;2023-04-24T11:10:56;1.00;;;1.00;;
3259;SDS011;68938;48.150;14.004;2023-04-24T11:19:08;1.10;;;1.10;;
3259;SDS011;68938;48.150;14.004;2023-04-24T11:21:54;0.93;;;0.93;;
3259;SDS011;68938;48.150;14.004;2023-04-24T11:32:37;1.43;;;0.83;;
3259;SDS011;68938;48.150;14.004;2023-04-24T11:35:14;1.00;;;0.90;;
3259;SDS011;68938;48.150;14.004;2023-04-24T11:37:45;1.27;;;1.17;;
3259;SDS011;68938;48.150;14.004;2023-04-24T11:40:21;1.70;;;1.23;;
3259;SDS011;68938;48.150;14.004;2023-04-24T11:42:49;1.00;;;1.00;;
3259;SDS011;68938;48.150;14.004;2023-04-24T11:45:20;1.00;;;1.00;;
3259;SDS011;68938;48.150;14.004;2023-04-24T11:47:50;1.33;;;1.00;;
3259;SDS011;68938;48.150;14.004;2023-04-24T11:50:18;2.00;;;1.00;;
3259;SDS011;68938;48.150;14.004;2023-04-24T11:52:49;0.93;;;0.93;;
3259;SDS011;68938;48.150;14.004;2023-04-24T11:57:47;0.90;;;0.90;;
3259;SDS011;68938;48.150;14.004;2023-04-24T12:03:02;3.33;;;1.30;;
3259;SDS011;68938;48.150;14.004;2023-04-24T12:05:35;1.03;;;0.93;;
3259;SDS011;68938;48.150;14.004;2023-04-24T12:08:03;2.60;;;1.10;;
3259;SDS011;68938;48.150;14.004;2023-04-24T12:10:31;2.20;;;0.90;;
3259;SDS011;68938;48.150;14.004;2023-04-24T12:12:59;1.27;;;1.10;;
3259;SDS011;68938;48.150;14.004;2023-04-24T12:15:26;1.40;;;1.30;;
3259;SDS011;68938;48.150;14.004;2023-04-24T12:17:54;1.30;;;1.20;;
3259;SDS011;68938;48.150;14.004;2023-04-24T12:20:26;1.97;;;1.00;;
3259;SDS011;68938;48.150;14.004;2023-04-24T12:22:56;1.63;;;1.20;;
3259;SDS011;68938;48.150;14.004;2023-04-24T12:25:26;1.23;;;1.17;;
3259;SDS011;68938;48.150;14.004;2023-04-24T12:27:55;2.40;;;1.47;;
3259;SDS011;68938;48.150;14.004;2023-04-24T12:30:32;1.80;;;1.70;;
3259;SDS011;68938;48.150;14.004;2023-04-24T12:33:04;1.90;;;1.80;;
3259;SDS011;68938;48.150;14.004;2023-04-24T12:35:32;2.33;;;2.10;;
3259;SDS011;68938;48.150;14.004;2023-04-24T12:38:07;1.80;;;1.70;;
3259;SDS011;68938;48.150;14.004;2023-04-24T12:40:39;2.00;;;1.90;;
3259;SDS011;68938;48.150;14.004;2023-04-24T12:43:14;2.67;;;2.43;;
3259;SDS011;68938;48.150;14.004;2023-04-24T12:45:43;2.07;;;1.60;;
3259;SDS011;68938;48.150;14.004;2023-04-24T12:48:11;2.97;;;1.80;;
3259;SDS011;68938;48.150;14.004;2023-04-24T12:50:38;2.30;;;2.20;;
3259;SDS011;68938;48.150;14.004;2023-04-24T12:53:06;2.67;;;2.53;;
3259;SDS011;68938;48.150;14.004;2023-04-24T12:55:34;1.80;;;1.70;;
3259;SDS011;68938;48.150;14.004;2023-04-24T12:58:02;2.23;;;1.63;;
3259;SDS011;68938;48.150;14.004;2023-04-24T13:00:29;2.97;;;1.53;;
3259;SDS011;68938;48.150;14.004;2023-04-24T13:02:56;3.67;;;1.77;;
3259;SDS011;68938;48.150;14.004;2023-04-24T13:05:23;2.50;;;1.90;;
3259;SDS011;68938;48.150;14.004;2023-04-24T13:07:50;2.20;;;1.60;;
3259;SDS011;68938;48.150;14.004;2023-04-24T13:10:17;1.80;;;1.70;;
3259;SDS011;68938;48.150;14.004;2023-04-24T13:12:44;1.60;;;1.50;;
3259;SDS011;68938;48.150;14.004;2023-04-24T13:15:12;2.30;;;1.80;;
3259;SDS011;68938;48.150;14.004;2023-04-24T13:17:39;2.20;;;2.00;;
3259;SDS011;68938;48.150;14.004;2023-04-24T13:20:06;1.60;;;1.50;;
3259;SDS011;68938;48.150;14.004;2023-04-24T13:22:33;1.80;;;1.70;;
3259;SDS011;68938;48.150;14.004;2023-04-24T13:25:00;2.03;;;1.93;;
3259;SDS011;68938;48.150;14.004;2023-04-24T13:27:27;1.80;;;1.70;;
3259;SDS011;68938;48.150;14.004;2023-04-24T13:29:54;1.67;;;1.67;;
3259;SDS011;68938;48.150;14.004;2023-04-24T13:32:21;2.10;;;2.00;;
3259;SDS011;68938;48.150;14.004;2023-04-24T13:34:48;1.90;;;1.80;;
3259;SDS011;68938;48.150;14.004;2023-04-24T13:37:15;1.97;;;1.87;;
3259;SDS011;68938;48.150;14.004;2023-04-24T13:39:42;2.43;;;2.03;;
3259;SDS011;68938;48.150;14.004;2023-04-24T13:42:09;1.77;;;1.67;;
3259;SDS011;68938;48.150;14.004;2023-04-24T13:44:36;2.03;;;1.93;;
3259;SDS011;68938;48.150;14.004;2023-04-24T13:47:03;1.80;;;1.80;;
3259;SDS011;68938;48.150;14.004;2023-04-24T13:49:30;1.83;;;1.73;;
3259;SDS011;68938;48.150;14.004;2023-04-24T13:51:57;2.20;;;1.53;;
3259;SDS011;68938;48.150;14.004;2023-04-24T13:54:24;2.03;;;1.70;;
3259;SDS011;68938;48.150;14.004;2023-04-24T13:56:51;1.90;;;1.80;;
3259;SDS011;68938;48.150;14.004;2023-04-24T13:59:19;4.67;;;2.10;;
3259;SDS011;68938;48.150;14.004;2023-04-24T14:01:47;2.13;;;2.03;;
3259;SDS011;68938;48.150;14.004;2023-04-24T14:04:14;2.27;;;2.13;;
3259;SDS011;68938;48.150;14.004;2023-04-24T14:06:42;2.13;;;2.00;;
3259;SDS011;68938;48.150;14.004;2023-04-24T14:09:10;2.33;;;2.23;;
3259;SDS011;68938;48.150;14.004;2023-04-24T14:11:37;2.07;;;1.90;;
3259;SDS011;68938;48.150;14.004;2023-04-24T14:14:04;2.40;;;2.17;;
3259;SDS011;68938;48.150;14.004;2023-04-24T14:16:32;2.07;;;1.97;;
3259;SDS011;68938;48.150;14.004;2023-04-24T14:18:59;3.47;;;2.47;;
3259;SDS011;68938;48.150;14.004;2023-04-24T14:21:26;2.23;;;2.03;;
3259;SDS011;68938;48.150;14.004;2023-04-24T14:23:53;1.80;;;1.70;;
3259;SDS011;68938;48.150;14.004;2023-04-24T14:26:19;2.20;;;2.10;;
3259;SDS011;68938;48.150;14.004;2023-04-24T14:28:46;2.23;;;1.57;;
3259;SDS011;68938;48.150;14.004;2023-04-24T14:31:13;2.50;;;2.33;;
3259;SDS011;68938;48.150;14.004;2023-04-24T14:33:40;2.70;;;2.27;;
3259;SDS011;68938;48.150;14.004;2023-04-24T14:36:07;1.73;;;1.63;;
3259;SDS011;68938;48.150;14.004;2023-04-24T14:38:34;1.60;;;1.50;;
3259;SDS011;68938;48.150;14.004;2023-04-24T14:41:01;1.77;;;1.67;;
3259;SDS011;68938;48.150;14.004;2023-04-24T14:43:34;1.97;;;1.50;;
3259;SDS011;68938;48.150;14.004;2023-04-24T14:46:02;1.10;;;1.10;;
3259;SDS011;68938;48.150;14.004;2023-04-24T14:48:29;1.47;;;1.37;;
3259;SDS011;68938;48.150;14.004;2023-04-24T14:50:56;1.23;;;1.23;;
3259;SDS011;68938;48.150;14.004;2023-04-24T14:53:23;1.20;;;1.20;;
3259;SDS011;68938;48.150;14.004;2023-04-24T14:55:50;1.50;;;1.40;;
3259;SDS011;68938;48.150;14.004;2023-04-24T14:58:17;2.07;;;1.50;;
3259;SDS011;68938;48.150;14.004;2023-04-24T15:00:44;1.77;;;1.67;;
3259;SDS011;68938;48.150;14.004;2023-04-24T15:03:11;1.63;;;1.53;;
3259;SDS011;68938;48.150;14.004;2023-04-24T15:05:39;1.93;;;1.50;;
3259;SDS011;68938;48.150;14.004;2023-04-24T15:08:06;1.50;;;1.50;;
3259;SDS011;68938;48.150;14.004;2023-04-24T15:10:33;1.40;;;1.30;;
3259;SDS011;68938;48.150;14.004;2023-04-24T15:13:00;1.50;;;1.10;;
3259;SDS011;68938;48.150;14.004;2023-04-24T15:15:27;11.27;;;1.73;;
3259;SDS011;68938;48.150;14.004;2023-04-24T15:17:54;3.27;;;1.50;;
3259;SDS011;68938;48.150;14.004;2023-04-24T15:20:21;1.80;;;1.70;;